sensor_id;sensor_type;location;lat;lon;timestamp;pressure;altitude;pressure_sealevel;temperature;humidity
46955;BME280;32708;51.212;6.788;2023-12-22T00:00:42;99700.25;;;6.58;100.00
46955;BME280;32708;51.212;6.788;2023-12-22T00:03:08;99685.25;;;6.86;100.00
46955;BME280;32708;51.212;6.788;2023-12-22T00:05:34;99679.19;;;6.89;100.00
46955;BME280;32708;51.212;6.788;2023-12-22T00:08:00;99671.53;;;6.83;100.00
46955;BME280;32708;51.212;6.788;2023-12-22T00:10:26;99676.94;;;6.83;100.00
46955;BME280;32708;51.212;6.788;2023-12-22T00:12:52;99677.72;;;6.92;100.00
46955;BME280;32708;51.212;6.788;2023-12-22T00:15:18;99675.34;;;6.56;100.00
46955;BME280;32708;51.212;6.788;2023-12-22T00:17:45;99675.00;;;6.49;100.00
46955;BME280;32708;51.212;6.788;2023-12-22T00:20:11;99675.84;;;6.75;100.00
46955;BME280;32708;51.212;6.788;2023-12-22T00:22:39;99720.50;;;6.78;100.00
46955;BME280;32708;51.212;6.788;2023-12-22T00:25:05;99710.63;;;6.90;100.00
46955;BME280;32708;51.212;6.788;2023-12-22T00:27:34;99690.66;;;6.52;100.00
46955;BME280;32708;51.212;6.788;2023-12-22T00:30:00;99678.22;;;6.59;100.00
46955;BME280;32708;51.212;6.788;2023-12-22T00:32:26;99688.28;;;6.68;100.00
46955;BME280;32708;51.212;6.788;2023-12-22T00:34:52;99692.28;;;6.96;100.00
46955;BME280;32708;51.212;6.788;2023-12-22T00:37:18;99675.03;;;6.83;100.00
46955;BME280;32708;51.212;6.788;2023-12-22T00:39:45;99679.81;;;6.95;100.00
46955;BME280;32708;51.212;6.788;2023-12-22T00:42:11;99695.47;;;6.98;100.00
46955;BME280;32708;51.212;6.788;2023-12-22T00:44:37;99659.56;;;6.75;100.00
46955;BME280;32708;51.212;6.788;2023-12-22T00:47:05;99675.38;;;6.73;100.00
46955;BME280;32708;51.212;6.788;2023-12-22T00:49:31;99696.75;;;6.66;100.00
46955;BME280;32708;51.212;6.788;2023-12-22T00:51:57;99693.88;;;6.88;100.00
46955;BME280;32708;51.212;6.788;2023-12-22T00:54:23;99710.78;;;6.59;100.00
46955;BME280;32708;51.212;6.788;2023-12-22T00:56:51;99724.47;;;6.46;100.00
46955;BME280;32708;51.212;6.788;2023-12-22T00:59:17;99696.22;;;6.38;100.00
46955;BME280;32708;51.212;6.788;2023-12-22T01:01:43;99716.84;;;6.65;100.00
46955;BME280;32708;51.212;6.788;2023-12-22T01:04:10;99702.63;;;6.85;100.00
46955;BME280;32708;51.212;6.788;2023-12-22T01:06:39;99714.94;;;6.92;100.00
46955;BME280;32708;51.212;6.788;2023-12-22T01:09:05;99717.50;;;6.79;100.00
46955;BME280;32708;51.212;6.788;2023-12-22T01:11:31;99717.47;;;7.05;100.00
46955;BME280;32708;51.212;6.788;2023-12-22T01:13:58;99729.59;;;6.99;100.00
46955;BME280;32708;51.212;6.788;2023-12-22T01:16:24;99728.69;;;6.86;100.00
46955;BME280;32708;51.212;6.788;2023-12-22T01:18:50;99713.34;;;6.90;100.00
46955;BME280;32708;51.212;6.788;2023-12-22T01:21:17;99705.34;;;7.11;100.00
46955;BME280;32708;51.212;6.788;2023-12-22T01:23:44;99679.34;;;7.02;100.00
46955;BME280;32708;51.212;6.788;2023-12-22T01:26:10;99683.47;;;7.16;100.00
46955;BME280;32708;51.212;6.788;2023-12-22T01:28:36;99692.84;;;7.28;100.00
46955;BME280;32708;51.212;6.788;2023-12-22T01:31:03;99710.63;;;6.99;100.00
46955;BME280;32708;51.212;6.788;2023-12-22T01:33:29;99723.41;;;7.16;100.00
46955;BME280;32708;51.212;6.788;2023-12-22T01:35:56;99735.06;;;7.08;100.00
46955;BME280;32708;51.212;6.788;2023-12-22T01:38:22;99746.06;;;7.03;100.00
46955;BME280;32708;51.212;6.788;2023-12-22T01:40:48;99735.84;;;7.17;100.00
46955;BME280;32708;51.212;6.788;2023-12-22T01:43:14;99731.06;;;7.05;100.00
46955;BME280;32708;51.212;6.788;2023-12-22T01:45:42;99740.13;;;7.27;100.00
46955;BME280;32708;51.212;6.788;2023-12-22T01:48:11;99728.19;;;7.10;100.00
46955;BME280;32708;51.212;6.788;2023-12-22T01:50:37;99721.31;;;6.96;100.00
46955;BME280;32708;51.212;6.788;2023-12-22T01:53:05;99711.91;;;7.02;100.00
46955;BME280;32708;51.212;6.788;2023-12-22T01:55:32;99689.84;;;7.12;100.00
46955;BME280;32708;51.212;6.788;2023-12-22T01:57:59;99678.06;;;7.08;100.00
46955;BME280;32708;51.212;6.788;2023-12-22T02:00:26;99682.84;;;7.11;100.00
46955;BME280;32708;51.212;6.788;2023-12-22T02:02:53;99698.97;;;7.16;100.00
46955;BME280;32708;51.212;6.788;2023-12-22T02:05:19;99697.34;;;7.24;100.00
46955;BME280;32708;51.212;6.788;2023-12-22T02:07:46;99693.63;;;7.45;100.00
46955;BME280;32708;51.212;6.788;2023-12-22T02:10:12;99715.66;;;7.53;100.00
46955;BME280;32708;51.212;6.788;2023-12-22T02:12:38;99719.38;;;7.31;100.00
46955;BME280;32708;51.212;6.788;2023-12-22T02:15:06;99707.25;;;7.37;100.00
46955;BME280;32708;51.212;6.788;2023-12-22T02:17:52;99731.53;;;7.89;100.00
46955;BME280;32708;51.212;6.788;2023-12-22T02:20:21;99721.91;;;7.44;100.00
46955;BME280;32708;51.212;6.788;2023-12-22T02:22:54;99720.94;;;7.58;100.00
46955;BME280;32708;51.212;6.788;2023-12-22T02:25:20;99721.91;;;7.53;100.00
46955;BME280;32708;51.212;6.788;2023-12-22T02:27:58;99748.78;;;7.37;100.00
46955;BME280;32708;51.212;6.788;2023-12-22T02:31:04;99735.50;;;7.44;100.00
46955;BME280;32708;51.212;6.788;2023-12-22T02:33:38;99748.00;;;7.02;100.00
46955;BME280;32708;51.212;6.788;2023-12-22T02:36:10;99717.78;;;6.78;100.00
46955;BME280;32708;51.212;6.788;2023-12-22T02:38:41;99775.69;;;6.56;100.00
46955;BME280;32708;51.212;6.788;2023-12-22T02:41:09;99781.63;;;6.67;100.00
46955;BME280;32708;51.212;6.788;2023-12-22T02:43:36;99776.03;;;6.63;100.00
46955;BME280;32708;51.212;6.788;2023-12-22T02:46:02;99787.84;;;6.58;100.00
46955;BME280;32708;51.212;6.788;2023-12-22T02:48:28;99772.56;;;6.80;100.00
46955;BME280;32708;51.212;6.788;2023-12-22T02:50:54;99751.31;;;6.73;100.00
46955;BME280;32708;51.212;6.788;2023-12-22T02:53:20;99745.59;;;7.01;100.00
46955;BME280;32708;51.212;6.788;2023-12-22T02:55:46;99759.00;;;7.23;100.00
46955;BME280;32708;51.212;6.788;2023-12-22T02:58:13;99759.31;;;7.13;100.00
46955;BME280;32708;51.212;6.788;2023-12-22T03:00:39;99741.91;;;7.14;100.00
46955;BME280;32708;51.212;6.788;2023-12-22T03:03:06;99733.13;;;7.17;100.00
46955;BME280;32708;51.212;6.788;2023-12-22T03:05:32;99737.72;;;7.42;100.00
46955;BME280;32708;51.212;6.788;2023-12-22T03:07:59;99722.56;;;7.50;100.00
46955;BME280;32708;51.212;6.788;2023-12-22T03:10:25;99708.38;;;7.10;100.00
46955;BME280;32708;51.212;6.788;2023-12-22T03:12:51;99721.78;;;7.06;100.00
46955;BME280;32708;51.212;6.788;2023-12-22T03:15:17;99714.91;;;7.26;100.00
46955;BME280;32708;51.212;6.788;2023-12-22T03:17:43;99720.06;;;6.93;100.00
46955;BME280;32708;51.212;6.788;2023-12-22T03:20:10;99716.03;;;7.25;100.00
46955;BME280;32708;51.212;6.788;2023-12-22T03:22:36;99714.44;;;7.07;100.00
46955;BME280;32708;51.212;6.788;2023-12-22T03:25:02;99712.38;;;7.12;100.00
46955;BME280;32708;51.212;6.788;2023-12-22T03:27:29;99715.56;;;7.23;100.00
46955;BME280;32708;51.212;6.788;2023-12-22T03:29:55;99721.94;;;7.27;100.00
46955;BME280;32708;51.212;6.788;2023-12-22T03:32:21;99721.97;;;7.10;100.00
46955;BME280;32708;51.212;6.788;2023-12-22T03:34:47;99721.19;;;7.01;100.00
46955;BME280;32708;51.212;6.788;2023-12-22T03:37:14;99736.66;;;7.17;100.00
46955;BME280;32708;51.212;6.788;2023-12-22T03:39:40;99734.53;;;6.71;100.00
46955;BME280;32708;51.212;6.788;2023-12-22T03:42:06;99733.94;;;7.00;100.00
46955;BME280;32708;51.212;6.788;2023-12-22T03:44:33;99735.06;;;7.16;100.00
46955;BME280;32708;51.212;6.788;2023-12-22T03:46:59;99719.72;;;7.12;100.00
46955;BME280;32708;51.212;6.788;2023-12-22T03:49:25;99724.19;;;7.08;100.00
46955;BME280;32708;51.212;6.788;2023-12-22T03:51:51;99738.88;;;7.33;100.00
46955;BME280;32708;51.212;6.788;2023-12-22T03:54:17;99726.13;;;7.16;100.00
46955;BME280;32708;51.212;6.788;2023-12-22T03:56:43;99711.41;;;7.26;100.00
46955;BME280;32708;51.212;6.788;2023-12-22T03:59:10;99723.00;;;7.61;100.00
46955;BME280;32708;51.212;6.788;2023-12-22T04:01:36;99722.22;;;7.52;100.00
46955;BME280;32708;51.212;6.788;2023-12-22T04:04:02;99712.06;;;7.78;100.00
46955;BME280;32708;51.212;6.788;2023-12-22T04:06:28;99707.53;;;7.35;100.00
46955;BME280;32708;51.212;6.788;2023-12-22T04:08:55;99717.00;;;7.03;100.00
46955;BME280;32708;51.212;6.788;2023-12-22T04:11:21;99728.59;;;7.56;100.00
46955;BME280;32708;51.212;6.788;2023-12-22T04:13:47;99716.50;;;7.44;100.00
46955;BME280;32708;51.212;6.788;2023-12-22T04:16:13;99733.75;;;7.05;100.00
46955;BME280;32708;51.212;6.788;2023-12-22T04:18:39;99744.78;;;7.09;100.00
46955;BME280;32708;51.212;6.788;2023-12-22T04:21:08;99784.69;;;7.00;100.00
46955;BME280;32708;51.212;6.788;2023-12-22T04:23:34;99780.66;;;6.62;100.00
46955;BME280;32708;51.212;6.788;2023-12-22T04:26:00;99757.88;;;6.98;100.00
46955;BME280;32708;51.212;6.788;2023-12-22T04:28:28;99753.75;;;7.09;100.00
46955;BME280;32708;51.212;6.788;2023-12-22T04:30:54;99741.59;;;6.81;100.00
46955;BME280;32708;51.212;6.788;2023-12-22T04:33:20;99731.84;;;6.80;100.00
46955;BME280;32708;51.212;6.788;2023-12-22T04:35:46;99726.59;;;7.01;100.00
46955;BME280;32708;51.212;6.788;2023-12-22T04:38:12;99713.81;;;7.10;100.00
46955;BME280;32708;51.212;6.788;2023-12-22T04:40:38;99691.16;;;7.14;100.00
46955;BME280;32708;51.212;6.788;2023-12-22T04:43:04;99717.63;;;7.26;100.00
46955;BME280;32708;51.212;6.788;2023-12-22T04:45:31;99698.59;;;7.43;100.00
46955;BME280;32708;51.212;6.788;2023-12-22T04:47:57;99723.84;;;7.35;100.00
46955;BME280;32708;51.212;6.788;2023-12-22T04:50:23;99726.06;;;7.51;100.00
46955;BME280;32708;51.212;6.788;2023-12-22T04:52:49;99729.88;;;7.50;100.00
46955;BME280;32708;51.212;6.788;2023-12-22T04:55:15;99726.66;;;7.65;100.00
46955;BME280;32708;51.212;6.788;2023-12-22T04:57:41;99731.59;;;7.71;100.00
46955;BME280;32708;51.212;6.788;2023-12-22T05:00:08;99742.31;;;7.68;100.00
46955;BME280;32708;51.212;6.788;2023-12-22T05:02:34;99714.59;;;7.83;100.00
46955;BME280;32708;51.212;6.788;2023-12-22T05:05:02;99721.13;;;7.91;100.00
46955;BME280;32708;51.212;6.788;2023-12-22T05:07:29;99729.22;;;8.08;100.00
46955;BME280;32708;51.212;6.788;2023-12-22T05:09:56;99721.28;;;7.94;100.00
46955;BME280;32708;51.212;6.788;2023-12-22T05:12:22;99712.72;;;8.13;100.00
46955;BME280;32708;51.212;6.788;2023-12-22T05:14:48;99716.50;;;8.21;100.00
46955;BME280;32708;51.212;6.788;2023-12-22T05:17:14;99731.47;;;8.06;100.00
46955;BME280;32708;51.212;6.788;2023-12-22T05:19:41;99718.66;;;8.15;100.00
46955;BME280;32708;51.212;6.788;2023-12-22T05:22:07;99727.81;;;8.02;100.00
46955;BME280;32708;51.212;6.788;2023-12-22T05:24:33;99733.59;;;8.30;100.00
46955;BME280;32708;51.212;6.788;2023-12-22T05:26:59;99739.59;;;8.15;100.00
46955;BME280;32708;51.212;6.788;2023-12-22T05:29:25;99737.25;;;8.34;100.00
46955;BME280;32708;51.212;6.788;2023-12-22T05:31:52;99730.91;;;8.60;100.00
46955;BME280;32708;51.212;6.788;2023-12-22T05:34:18;99722.56;;;8.65;100.00
46955;BME280;32708;51.212;6.788;2023-12-22T05:36:44;99718.44;;;8.59;100.00
46955;BME280;32708;51.212;6.788;2023-12-22T05:39:10;99718.28;;;8.76;100.00
46955;BME280;32708;51.212;6.788;2023-12-22T05:41:36;99722.34;;;8.91;100.00
46955;BME280;32708;51.212;6.788;2023-12-22T05:44:05;99719.28;;;8.50;100.00
46955;BME280;32708;51.212;6.788;2023-12-22T05:46:37;99700.78;;;8.65;100.00
46955;BME280;32708;51.212;6.788;2023-12-22T05:49:05;99699.44;;;8.71;100.00
46955;BME280;32708;51.212;6.788;2023-12-22T05:51:39;99707.03;;;8.65;100.00
46955;BME280;32708;51.212;6.788;2023-12-22T05:54:08;99725.13;;;8.82;100.00
46955;BME280;32708;51.212;6.788;2023-12-22T05:56:34;99738.88;;;8.86;100.00
46955;BME280;32708;51.212;6.788;2023-12-22T05:59:01;99735.03;;;8.87;100.00
46955;BME280;32708;51.212;6.788;2023-12-22T06:01:27;99723.63;;;8.93;100.00
46955;BME280;32708;51.212;6.788;2023-12-22T06:03:53;99732.44;;;8.90;100.00
46955;BME280;32708;51.212;6.788;2023-12-22T06:06:21;99737.53;;;8.92;100.00
46955;BME280;32708;51.212;6.788;2023-12-22T06:08:47;99726.59;;;9.00;100.00
46955;BME280;32708;51.212;6.788;2023-12-22T06:11:14;99733.56;;;8.89;100.00
46955;BME280;32708;51.212;6.788;2023-12-22T06:13:40;99736.94;;;9.07;100.00
46955;BME280;32708;51.212;6.788;2023-12-22T06:16:12;99720.91;;;9.26;100.00
46955;BME280;32708;51.212;6.788;2023-12-22T06:18:39;99719.22;;;9.01;100.00
46955;BME280;32708;51.212;6.788;2023-12-22T06:21:05;99728.75;;;9.28;100.00
46955;BME280;32708;51.212;6.788;2023-12-22T06:23:31;99732.91;;;8.92;100.00
46955;BME280;32708;51.212;6.788;2023-12-22T06:25:57;99744.03;;;8.99;100.00
46955;BME280;32708;51.212;6.788;2023-12-22T06:28:24;99744.31;;;9.06;100.00
46955;BME280;32708;51.212;6.788;2023-12-22T06:30:50;99749.72;;;8.94;100.00
46955;BME280;32708;51.212;6.788;2023-12-22T06:33:16;99740.66;;;9.23;100.00
46955;BME280;32708;51.212;6.788;2023-12-22T06:35:42;99743.78;;;8.92;100.00
46955;BME280;32708;51.212;6.788;2023-12-22T06:38:11;99742.78;;;8.97;100.00
46955;BME280;32708;51.212;6.788;2023-12-22T06:40:37;99746.50;;;8.92;100.00
46955;BME280;32708;51.212;6.788;2023-12-22T06:43:04;99762.13;;;9.04;100.00
46955;BME280;32708;51.212;6.788;2023-12-22T06:45:30;99755.19;;;9.06;100.00
46955;BME280;32708;51.212;6.788;2023-12-22T06:47:57;99759.13;;;9.18;100.00
46955;BME280;32708;51.212;6.788;2023-12-22T06:50:23;99757.66;;;8.99;100.00
46955;BME280;32708;51.212;6.788;2023-12-22T06:52:49;99768.97;;;9.10;100.00
46955;BME280;32708;51.212;6.788;2023-12-22T06:55:17;99761.41;;;9.16;100.00
46955;BME280;32708;51.212;6.788;2023-12-22T06:57:43;99746.75;;;9.20;100.00
46955;BME280;32708;51.212;6.788;2023-12-22T07:00:10;99766.88;;;9.07;100.00
46955;BME280;32708;51.212;6.788;2023-12-22T07:02:36;99757.47;;;9.25;100.00
46955;BME280;32708;51.212;6.788;2023-12-22T07:07:38;99749.53;;;8.70;100.00
46955;BME280;32708;51.212;6.788;2023-12-22T07:10:05;99752.78;;;8.63;100.00
46955;BME280;32708;51.212;6.788;2023-12-22T07:12:32;99748.56;;;8.95;100.00
46955;BME280;32708;51.212;6.788;2023-12-22T07:14:58;99751.75;;;8.97;100.00
46955;BME280;32708;51.212;6.788;2023-12-22T07:17:25;99761.59;;;9.10;100.00
46955;BME280;32708;51.212;6.788;2023-12-22T07:19:51;99771.69;;;8.89;100.00
46955;BME280;32708;51.212;6.788;2023-12-22T07:22:18;99790.69;;;8.68;100.00
46955;BME280;32708;51.212;6.788;2023-12-22T07:24:44;99784.75;;;8.75;100.00
46955;BME280;32708;51.212;6.788;2023-12-22T07:27:13;99803.22;;;8.90;100.00
46955;BME280;32708;51.212;6.788;2023-12-22T07:29:41;99809.84;;;8.80;100.00
46955;BME280;32708;51.212;6.788;2023-12-22T07:32:07;99812.72;;;8.08;100.00
46955;BME280;32708;51.212;6.788;2023-12-22T07:34:34;99801.72;;;7.95;100.00
46955;BME280;32708;51.212;6.788;2023-12-22T07:37:00;99786.56;;;8.24;100.00
46955;BME280;32708;51.212;6.788;2023-12-22T07:39:26;99797.97;;;8.55;100.00
46955;BME280;32708;51.212;6.788;2023-12-22T07:41:53;99796.63;;;8.32;100.00
46955;BME280;32708;51.212;6.788;2023-12-22T07:44:20;99794.38;;;8.34;100.00
46955;BME280;32708;51.212;6.788;2023-12-22T07:46:59;99791.22;;;8.62;100.00
46955;BME280;32708;51.212;6.788;2023-12-22T07:49:27;99800.06;;;8.50;100.00
46955;BME280;32708;51.212;6.788;2023-12-22T07:51:53;99784.09;;;8.48;100.00
46955;BME280;32708;51.212;6.788;2023-12-22T07:54:21;99797.63;;;8.57;100.00
46955;BME280;32708;51.212;6.788;2023-12-22T07:56:48;99797.22;;;8.76;100.00
46955;BME280;32708;51.212;6.788;2023-12-22T07:59:15;99796.88;;;8.48;100.00
46955;BME280;32708;51.212;6.788;2023-12-22T08:01:42;99811.84;;;8.63;100.00
46955;BME280;32708;51.212;6.788;2023-12-22T08:04:09;99813.16;;;8.57;100.00
46955;BME280;32708;51.212;6.788;2023-12-22T08:06:36;99812.28;;;8.73;100.00
46955;BME280;32708;51.212;6.788;2023-12-22T08:09:02;99811.50;;;8.73;100.00
46955;BME280;32708;51.212;6.788;2023-12-22T08:11:29;99810.47;;;8.86;100.00
46955;BME280;32708;51.212;6.788;2023-12-22T08:13:55;99806.78;;;8.82;100.00
46955;BME280;32708;51.212;6.788;2023-12-22T08:16:22;99801.44;;;8.94;100.00
46955;BME280;32708;51.212;6.788;2023-12-22T08:18:49;99805.84;;;8.78;100.00
46955;BME280;32708;51.212;6.788;2023-12-22T08:21:17;99806.28;;;8.59;100.00
46955;BME280;32708;51.212;6.788;2023-12-22T08:23:43;99818.84;;;9.02;100.00
46955;BME280;32708;51.212;6.788;2023-12-22T08:26:10;99814.50;;;8.80;100.00
46955;BME280;32708;51.212;6.788;2023-12-22T08:28:36;99817.31;;;9.13;100.00
46955;BME280;32708;51.212;6.788;2023-12-22T08:31:04;99813.13;;;9.36;100.00
46955;BME280;32708;51.212;6.788;2023-12-22T08:33:32;99820.19;;;9.17;100.00
46955;BME280;32708;51.212;6.788;2023-12-22T08:35:59;99819.13;;;9.30;100.00
46955;BME280;32708;51.212;6.788;2023-12-22T08:38:25;99818.19;;;9.26;100.00
46955;BME280;32708;51.212;6.788;2023-12-22T08:40:54;99825.00;;;9.53;100.00
46955;BME280;32708;51.212;6.788;2023-12-22T08:43:20;99814.13;;;9.32;100.00
46955;BME280;32708;51.212;6.788;2023-12-22T08:45:47;99822.16;;;9.49;100.00
46955;BME280;32708;51.212;6.788;2023-12-22T08:48:13;99824.56;;;9.51;100.00
46955;BME280;32708;51.212;6.788;2023-12-22T08:50:39;99816.91;;;9.44;100.00
46955;BME280;32708;51.212;6.788;2023-12-22T08:53:06;99818.16;;;9.47;100.00
46955;BME280;32708;51.212;6.788;2023-12-22T08:55:32;99808.84;;;9.48;100.00
46955;BME280;32708;51.212;6.788;2023-12-22T08:57:59;99806.19;;;9.60;100.00
46955;BME280;32708;51.212;6.788;2023-12-22T09:00:28;99803.03;;;9.70;100.00
46955;BME280;32708;51.212;6.788;2023-12-22T09:02:54;99800.41;;;9.95;100.00
46955;BME280;32708;51.212;6.788;2023-12-22T09:05:21;99791.97;;;9.87;100.00
46955;BME280;32708;51.212;6.788;2023-12-22T09:07:47;99784.69;;;9.79;100.00
46955;BME280;32708;51.212;6.788;2023-12-22T09:10:13;99773.84;;;9.71;100.00
46955;BME280;32708;51.212;6.788;2023-12-22T09:12:40;99773.13;;;9.95;100.00
46955;BME280;32708;51.212;6.788;2023-12-22T09:15:06;99779.13;;;9.88;100.00
46955;BME280;32708;51.212;6.788;2023-12-22T09:17:32;99767.06;;;9.77;100.00
46955;BME280;32708;51.212;6.788;2023-12-22T09:19:59;99774.66;;;9.71;100.00
46955;BME280;32708;51.212;6.788;2023-12-22T09:22:25;99779.94;;;9.88;100.00
46955;BME280;32708;51.212;6.788;2023-12-22T09:24:51;99780.56;;;9.73;100.00
46955;BME280;32708;51.212;6.788;2023-12-22T09:27:18;99770.72;;;9.81;100.00
46955;BME280;32708;51.212;6.788;2023-12-22T09:29:44;99777.22;;;9.55;100.00
46955;BME280;32708;51.212;6.788;2023-12-22T09:32:10;99788.34;;;9.96;100.00
46955;BME280;32708;51.212;6.788;2023-12-22T09:34:36;99764.84;;;10.03;100.00
46955;BME280;32708;51.212;6.788;2023-12-22T09:37:02;99767.28;;;9.84;100.00
46955;BME280;32708;51.212;6.788;2023-12-22T09:39:29;99772.66;;;9.92;100.00
46955;BME280;32708;51.212;6.788;2023-12-22T09:41:55;99774.09;;;9.78;100.00
46955;BME280;32708;51.212;6.788;2023-12-22T09:44:22;99768.56;;;9.86;100.00
46955;BME280;32708;51.212;6.788;2023-12-22T09:46:49;99770.66;;;9.69;100.00
46955;BME280;32708;51.212;6.788;2023-12-22T09:49:22;99774.34;;;9.73;100.00
46955;BME280;32708;51.212;6.788;2023-12-22T09:51:51;99759.00;;;9.92;100.00
46955;BME280;32708;51.212;6.788;2023-12-22T09:54:18;99768.78;;;9.81;100.00
46955;BME280;32708;51.212;6.788;2023-12-22T09:56:47;99772.50;;;9.77;100.00
46955;BME280;32708;51.212;6.788;2023-12-22T09:59:14;99761.75;;;9.92;100.00
46955;BME280;32708;51.212;6.788;2023-12-22T10:01:45;99764.81;;;9.91;100.00
46955;BME280;32708;51.212;6.788;2023-12-22T10:04:14;99766.84;;;9.82;100.00
46955;BME280;32708;51.212;6.788;2023-12-22T10:06:41;99756.88;;;9.86;100.00
46955;BME280;32708;51.212;6.788;2023-12-22T10:09:08;99750.53;;;9.94;100.00
46955;BME280;32708;51.212;6.788;2023-12-22T10:11:39;99746.31;;;9.97;100.00
46955;BME280;32708;51.212;6.788;2023-12-22T10:14:09;99753.34;;;9.98;100.00
46955;BME280;32708;51.212;6.788;2023-12-22T10:16:40;99752.94;;;10.08;100.00
46955;BME280;32708;51.212;6.788;2023-12-22T10:19:07;99748.81;;;10.02;100.00
46955;BME280;32708;51.212;6.788;2023-12-22T10:21:34;99752.66;;;9.88;100.00
46955;BME280;32708;51.212;6.788;2023-12-22T10:24:04;99757.28;;;9.76;100.00
46955;BME280;32708;51.212;6.788;2023-12-22T10:26:30;99759.00;;;9.80;100.00
46955;BME280;32708;51.212;6.788;2023-12-22T10:28:59;99757.00;;;10.14;100.00
46955;BME280;32708;51.212;6.788;2023-12-22T10:31:26;99747.34;;;10.04;100.00
46955;BME280;32708;51.212;6.788;2023-12-22T10:33:53;99748.47;;;10.03;100.00
46955;BME280;32708;51.212;6.788;2023-12-22T10:36:19;99733.03;;;10.19;100.00
46955;BME280;32708;51.212;6.788;2023-12-22T10:38:46;99721.78;;;10.09;100.00
46955;BME280;32708;51.212;6.788;2023-12-22T10:41:13;99742.34;;;9.94;100.00
46955;BME280;32708;51.212;6.788;2023-12-22T10:43:40;99753.91;;;9.91;100.00
46955;BME280;32708;51.212;6.788;2023-12-22T10:46:10;99752.34;;;10.02;100.00
46955;BME280;32708;51.212;6.788;2023-12-22T10:49:30;99742.47;;;10.10;100.00
46955;BME280;32708;51.212;6.788;2023-12-22T10:52:18;99757.22;;;9.97;100.00
46955;BME280;32708;51.212;6.788;2023-12-22T10:55:08;99758.03;;;10.09;100.00
46955;BME280;32708;51.212;6.788;2023-12-22T10:57:35;99756.63;;;9.91;100.00
46955;BME280;32708;51.212;6.788;2023-12-22T11:00:07;99755.28;;;9.97;100.00
46955;BME280;32708;51.212;6.788;2023-12-22T11:02:36;99742.69;;;10.17;100.00
46955;BME280;32708;51.212;6.788;2023-12-22T11:05:11;99736.38;;;10.25;100.00
46955;BME280;32708;51.212;6.788;2023-12-22T11:07:48;99741.25;;;10.32;100.00
46955;BME280;32708;51.212;6.788;2023-12-22T11:10:21;99732.03;;;10.48;100.00
46955;BME280;32708;51.212;6.788;2023-12-22T11:12:48;99726.47;;;10.45;100.00
46955;BME280;32708;51.212;6.788;2023-12-22T11:15:18;99732.28;;;10.43;100.00
46955;BME280;32708;51.212;6.788;2023-12-22T11:17:48;99729.19;;;10.45;100.00
46955;BME280;32708;51.212;6.788;2023-12-22T11:20:18;99728.28;;;10.65;100.00
46955;BME280;32708;51.212;6.788;2023-12-22T11:22:46;99722.81;;;10.41;100.00
46955;BME280;32708;51.212;6.788;2023-12-22T11:25:18;99734.84;;;10.64;100.00
46955;BME280;32708;51.212;6.788;2023-12-22T11:27:48;99731.78;;;10.66;100.00
46955;BME280;32708;51.212;6.788;2023-12-22T11:30:20;99742.50;;;10.46;100.00
46955;BME280;32708;51.212;6.788;2023-12-22T11:32:49;99746.22;;;10.66;100.00
46955;BME280;32708;51.212;6.788;2023-12-22T11:35:16;99728.94;;;10.74;100.00
46955;BME280;32708;51.212;6.788;2023-12-22T11:37:45;99728.84;;;10.59;100.00
46955;BME280;32708;51.212;6.788;2023-12-22T11:40:11;99729.50;;;10.68;100.00
46955;BME280;32708;51.212;6.788;2023-12-22T11:42:48;99720.16;;;10.81;100.00
46955;BME280;32708;51.212;6.788;2023-12-22T11:45:15;99708.13;;;11.10;100.00
46955;BME280;32708;51.212;6.788;2023-12-22T11:47:43;99710.63;;;11.03;100.00
46955;BME280;32708;51.212;6.788;2023-12-22T11:50:11;99713.56;;;11.10;100.00
46955;BME280;32708;51.212;6.788;2023-12-22T11:52:38;99697.97;;;11.11;100.00
46955;BME280;32708;51.212;6.788;2023-12-22T11:55:05;99695.59;;;11.09;100.00
46955;BME280;32708;51.212;6.788;2023-12-22T11:57:37;99691.31;;;10.96;100.00
46955;BME280;32708;51.212;6.788;2023-12-22T12:03:06;99678.41;;;11.09;100.00
46955;BME280;32708;51.212;6.788;2023-12-22T12:05:33;99669.44;;;11.08;100.00
46955;BME280;32708;51.212;6.788;2023-12-22T12:08:10;99674.06;;;11.36;100.00
46955;BME280;32708;51.212;6.788;2023-12-22T12:10:52;99670.94;;;11.21;100.00
46955;BME280;32708;51.212;6.788;2023-12-22T12:13:24;99671.00;;;11.09;100.00
46955;BME280;32708;51.212;6.788;2023-12-22T12:15:52;99661.41;;;11.43;100.00
46955;BME280;32708;51.212;6.788;2023-12-22T12:18:24;99640.50;;;11.51;100.00
46955;BME280;32708;51.212;6.788;2023-12-22T12:20:50;99653.00;;;11.36;100.00
46955;BME280;32708;51.212;6.788;2023-12-22T12:23:17;99640.84;;;11.49;100.00
46955;BME280;32708;51.212;6.788;2023-12-22T12:25:43;99639.91;;;11.57;100.00
46955;BME280;32708;51.212;6.788;2023-12-22T12:28:10;99638.13;;;11.65;100.00
46955;BME280;32708;51.212;6.788;2023-12-22T12:30:38;99649.72;;;11.30;100.00
46955;BME280;32708;51.212;6.788;2023-12-22T12:33:10;99667.00;;;11.35;100.00
46955;BME280;32708;51.212;6.788;2023-12-22T12:35:50;99660.06;;;11.53;100.00
46955;BME280;32708;51.212;6.788;2023-12-22T12:38:23;99644.47;;;11.53;100.00
46955;BME280;32708;51.212;6.788;2023-12-22T12:40:57;99649.53;;;11.23;100.00
46955;BME280;32708;51.212;6.788;2023-12-22T12:43:25;99637.06;;;11.54;100.00
46955;BME280;32708;51.212;6.788;2023-12-22T12:45:53;99628.25;;;11.61;100.00
46955;BME280;32708;51.212;6.788;2023-12-22T12:48:21;99627.38;;;11.72;100.00
46955;BME280;32708;51.212;6.788;2023-12-22T12:51:27;99623.38;;;11.54;100.00
46955;BME280;32708;51.212;6.788;2023-12-22T13:02:41;99613.50;;;11.97;100.00
46955;BME280;32708;51.212;6.788;2023-12-22T13:05:23;99620.09;;;11.17;100.00
46955;BME280;32708;51.212;6.788;2023-12-22T13:07:51;99620.97;;;11.21;100.00
46955;BME280;32708;51.212;6.788;2023-12-22T13:10:24;99615.25;;;11.42;100.00
46955;BME280;32708;51.212;6.788;2023-12-22T13:12:52;99610.75;;;11.49;100.00
46955;BME280;32708;51.212;6.788;2023-12-22T13:15:20;99622.41;;;11.62;100.00